createdAt,value
2022-07-29T00:00:12.039Z,0.03
2022-07-29T00:02:56.673Z,0.03
2022-07-29T00:05:26.450Z,0.03
2022-07-29T00:07:41.663Z,0.03
2022-07-29T00:10:47.611Z,0.03
2022-07-29T00:13:38.675Z,0.03
2022-07-29T00:16:15.138Z,0.03
2022-07-29T00:18:36.732Z,0.03
2022-07-29T00:20:43.529Z,0.03
2022-07-29T00:23:41.224Z,0.03
2022-07-29T00:26:24.098Z,0.03
2022-07-29T00:28:52.162Z,0.03
2022-07-29T00:31:05.442Z,0.03
2022-07-29T00:34:09.580Z,0.03
2022-07-29T00:36:58.934Z,0.03
2022-07-29T00:39:33.465Z,0.03
2022-07-29T00:41:53.390Z,0.03
2022-07-29T00:43:58.470Z,0.03
2022-07-29T00:46:54.373Z,0.03
2022-07-29T00:49:35.476Z,0.03
2022-07-29T00:52:01.860Z,0.03
2022-07-29T00:54:13.741Z,0.03
2022-07-29T00:57:15.645Z,0.04
2022-07-29T01:00:03.415Z,0.04
2022-07-29T01:02:36.291Z,0.04
2022-07-29T01:04:54.141Z,0.03
2022-07-29T01:06:57.542Z,0.03
2022-07-29T01:09:51.758Z,0.03
2022-07-29T01:12:30.826Z,0.03
2022-07-29T01:14:55.328Z,0.04
2022-07-29T01:17:04.971Z,0.04
2022-07-29T01:20:05.412Z,0.04
2022-07-29T01:22:51.297Z,0.03
2022-07-29T01:25:22.245Z,0.03
2022-07-29T01:27:38.091Z,0.04
2022-07-29T01:30:44.950Z,0.04
2022-07-29T01:33:37.167Z,0.03
2022-07-29T01:36:14.587Z,0.04
2022-07-29T01:38:36.936Z,0.04
2022-07-29T01:40:44.903Z,0.04
2022-07-29T01:43:43.590Z,0.04
2022-07-29T01:46:27.503Z,0.04
2022-07-29T01:48:56.629Z,0.03
2022-07-29T01:51:10.759Z,0.03
2022-07-29T01:54:15.828Z,0.04
2022-07-29T01:57:05.867Z,0.03
2022-07-29T01:59:41.290Z,0.03
2022-07-29T02:02:01.922Z,0.03
2022-07-29T02:04:07.466Z,0.03
2022-07-29T02:07:04.037Z,0.03
2022-07-29T02:09:45.699Z,0.03
2022-07-29T02:12:12.641Z,0.03
2022-07-29T02:14:24.943Z,0.03
2022-07-29T02:17:27.909Z,0.03
2022-07-29T02:20:16.044Z,0.03
2022-07-29T02:22:49.557Z,0.04
2022-07-29T02:25:08.299Z,0.04
2022-07-29T02:27:12.218Z,0.04
2022-07-29T02:30:07.131Z,0.04
2022-07-29T02:32:47.237Z,0.04
2022-07-29T02:35:12.500Z,0.06
2022-07-29T02:37:22.748Z,0.05
2022-07-29T02:40:24.134Z,0.05
2022-07-29T02:43:10.547Z,0.06
2022-07-29T02:45:42.210Z,0.07
2022-07-29T02:47:59.241Z,0.09
2022-07-29T02:51:06.973Z,0.11
2022-07-29T02:53:59.875Z,0.15
2022-07-29T02:56:38.154Z,0.2
2022-07-29T02:59:01.533Z,0.25
2022-07-29T03:01:10.116Z,0.35
2022-07-29T03:04:09.733Z,0.53
2022-07-29T03:06:54.451Z,0.76
2022-07-29T03:09:24.307Z,1.1
2022-07-29T03:11:42.527Z,1.5
2022-07-29T03:14:45.191Z,2.34
2022-07-29T03:17:36.191Z,3.67
2022-07-29T03:20:12.459Z,5.51
2022-07-29T03:22:34.138Z,7.56
2022-07-29T03:24:40.882Z,11.18
2022-07-29T03:27:38.409Z,16.24
2022-07-29T03:30:22.035Z,25.37
2022-07-29T03:32:49.353Z,34.24
2022-07-29T03:35:02.541Z,49.28
2022-07-29T03:38:06.462Z,73.86
2022-07-29T03:40:55.773Z,101.36
2022-07-29T03:43:30.172Z,137
2022-07-29T03:45:49.781Z,181.6
2022-07-29T03:47:58.525Z,223.4
2022-07-29T03:50:50.502Z,292.3
2022-07-29T03:53:31.404Z,356
2022-07-29T03:55:57.679Z,428.6
2022-07-29T03:58:09.108Z,493.4
2022-07-29T04:01:11.347Z,610.2
2022-07-29T04:03:58.955Z,722.2
2022-07-29T04:06:31.627Z,850.2
2022-07-29T04:08:49.477Z,984.3
2022-07-29T04:10:52.447Z,1095.6
2022-07-29T04:13:46.393Z,1210.2
2022-07-29T04:16:25.591Z,1317.1
2022-07-29T04:18:49.751Z,1404.1
2022-07-29T04:20:59.418Z,1504.6
2022-07-29T04:23:59.761Z,1651
2022-07-29T04:26:45.308Z,1806
2022-07-29T04:29:16.231Z,1921
2022-07-29T04:31:32.357Z,2020
2022-07-29T04:34:39.110Z,2176
2022-07-29T04:37:31.353Z,2373
2022-07-29T04:40:08.726Z,2589
2022-07-29T04:42:31.275Z,2682
2022-07-29T04:44:39.584Z,2842
2022-07-29T04:47:37.535Z,2927
2022-07-29T04:50:21.322Z,3075
2022-07-29T04:52:50.162Z,3223
2022-07-29T04:55:04.497Z,3321
2022-07-29T04:58:09.568Z,3466
2022-07-29T05:00:59.728Z,3585
2022-07-29T05:03:35.221Z,3703
2022-07-29T05:05:55.932Z,3764
2022-07-29T05:08:01.694Z,3864
2022-07-29T05:10:58.467Z,4017
2022-07-29T05:13:45.616Z,4129
2022-07-29T05:16:07.379Z,4259
2022-07-29T05:18:19.521Z,4238
2022-07-29T05:21:22.627Z,4499
2022-07-29T05:24:10.838Z,4727
2022-07-29T05:26:44.200Z,4887
2022-07-29T05:29:02.952Z,4993
2022-07-29T05:31:07.042Z,5093
2022-07-29T05:34:01.530Z,5273
2022-07-29T05:36:41.507Z,5370
2022-07-29T05:39:06.709Z,5552
2022-07-29T05:41:17.070Z,5660
2022-07-29T05:44:18.519Z,5811
2022-07-29T05:47:04.896Z,5895
2022-07-29T05:49:36.590Z,5987
2022-07-29T05:51:53.275Z,6077
2022-07-29T05:55:00.926Z,6177
2022-07-29T05:57:53.741Z,5905
2022-07-29T06:00:31.684Z,6499
2022-07-29T06:02:55.026Z,6599
2022-07-29T06:05:03.591Z,6302
2022-07-29T06:08:02.879Z,6758
2022-07-29T06:10:47.509Z,6622
2022-07-29T06:13:17.290Z,7114
2022-07-29T06:15:32.325Z,7168
2022-07-29T06:18:38.127Z,7321
2022-07-29T06:21:29.468Z,7508
2022-07-29T06:24:05.720Z,7631
2022-07-29T06:26:30.923Z,7669
2022-07-29T06:28:34.091Z,7859
2022-07-29T06:31:31.645Z,8010
2022-07-29T06:34:14.580Z,8163
2022-07-29T06:36:42.296Z,8286
2022-07-29T06:38:55.403Z,8576
2022-07-29T06:41:59.190Z,8852
2022-07-29T06:44:48.393Z,9041
2022-07-29T06:47:22.672Z,9231
2022-07-29T06:49:42.014Z,9464
2022-07-29T06:51:46.420Z,9671
2022-07-29T06:54:41.383Z,9994
2022-07-29T06:57:21.577Z,10424
2022-07-29T06:59:46.902Z,10603
2022-07-29T07:01:57.725Z,10434
2022-07-29T07:04:58.835Z,11776
2022-07-29T07:07:45.146Z,12165
2022-07-29T07:10:16.899Z,11724
2022-07-29T07:12:33.871Z,13040
2022-07-29T07:14:36.190Z,11745
2022-07-29T07:17:29.090Z,13619
2022-07-29T07:20:07.128Z,13178
2022-07-29T07:22:30.821Z,13844
2022-07-29T07:24:38.881Z,14336
2022-07-29T07:27:37.767Z,13250
2022-07-29T07:30:22.008Z,14049
2022-07-29T07:32:51.265Z,12789
2022-07-29T07:35:06.166Z,9528
2022-07-29T07:38:11.414Z,8076
2022-07-29T07:41:01.861Z,7539
2022-07-29T07:43:37.859Z,7808
2022-07-29T07:45:59.338Z,7674
2022-07-29T07:48:05.754Z,7413
2022-07-29T07:51:02.807Z,6853
2022-07-29T07:53:45.065Z,7150
2022-07-29T07:56:13.038Z,8504
2022-07-29T07:58:25.602Z,9697
2022-07-29T08:01:29.412Z,9607
2022-07-29T08:04:22.125Z,9523
2022-07-29T08:06:52.643Z,11002
2022-07-29T08:09:27.972Z,12723
2022-07-29T08:11:17.386Z,13475
2022-07-29T08:14:12.821Z,14402
2022-07-29T08:16:53.658Z,14720
2022-07-29T08:19:19.692Z,14909
2022-07-29T08:21:30.975Z,17730
2022-07-29T08:24:32.391Z,17980
2022-07-29T08:27:41.095Z,18480
2022-07-29T08:29:51.423Z,18630
2022-07-29T08:32:08.865Z,19050
2022-07-29T08:34:11.828Z,18160
2022-07-29T08:37:05.071Z,11376
2022-07-29T08:39:43.459Z,10782
2022-07-29T08:42:07.379Z,11330
2022-07-29T08:44:16.591Z,11832
2022-07-29T08:47:16.174Z,12497
2022-07-29T08:50:01.365Z,12897
2022-07-29T08:52:31.882Z,13818
2022-07-29T08:54:47.614Z,14197
2022-07-29T08:57:54.504Z,14366
2022-07-29T09:00:45.409Z,14151
2022-07-29T09:03:22.410Z,13885
2022-07-29T09:05:47.607Z,15375
2022-07-29T09:07:52.176Z,16046
2022-07-29T09:10:50.095Z,16620
2022-07-29T09:13:33.265Z,17890
2022-07-29T09:16:05.777Z,18880
2022-07-29T09:18:19.390Z,20340
2022-07-29T09:21:20.325Z,18970
2022-07-29T09:24:10.160Z,15370
2022-07-29T09:26:45.184Z,13916
2022-07-29T09:29:05.428Z,13716
2022-07-29T09:31:10.987Z,13619
2022-07-29T09:34:06.905Z,12779
2022-07-29T09:36:48.176Z,12774
2022-07-29T09:39:14.755Z,13649
2022-07-29T09:41:26.981Z,16163
2022-07-29T09:44:29.153Z,25550
2022-07-29T09:47:16.890Z,23110
2022-07-29T09:49:50.028Z,24620
2022-07-29T09:52:08.489Z,26070
2022-07-29T09:54:12.110Z,33970
2022-07-29T09:57:06.324Z,23380
2022-07-29T09:59:50.013Z,20670
2022-07-29T10:02:10.306Z,20100
2022-07-29T10:04:20.218Z,26920
2022-07-29T10:07:20.582Z,25560
2022-07-29T10:10:06.093Z,28690
2022-07-29T10:12:36.712Z,26960
2022-07-29T10:14:52.757Z,28650
2022-07-29T10:16:54.031Z,29340
2022-07-29T10:19:45.208Z,28370
2022-07-29T10:22:43.533Z,31410
2022-07-29T10:24:44.929Z,28660
2022-07-29T10:26:52.764Z,29780
2022-07-29T10:29:51.218Z,36990
2022-07-29T10:32:35.018Z,31800
2022-07-29T10:34:44.324Z,31740
2022-07-29T10:37:45.638Z,27200
2022-07-29T10:40:28.495Z,28530
2022-07-29T10:42:58.665Z,38110
2022-07-29T10:45:14.054Z,32130
2022-07-29T10:48:19.530Z,31870
2022-07-29T10:51:10.808Z,31170
2022-07-29T10:53:47.490Z,23710
2022-07-29T10:56:11.441Z,20700
2022-07-29T10:58:16.197Z,16670
2022-07-29T11:01:13.434Z,13429
2022-07-29T11:03:57.064Z,12185
2022-07-29T11:06:26.492Z,12359
2022-07-29T11:08:36.996Z,12252
2022-07-29T11:11:40.349Z,10480
2022-07-29T11:14:29.162Z,9287
2022-07-29T11:17:06.163Z,8791
2022-07-29T11:19:26.200Z,8780
2022-07-29T11:21:36.039Z,9295
2022-07-29T11:24:28.537Z,10419
2022-07-29T11:27:06.194Z,11934
2022-07-29T11:29:32.817Z,13199
2022-07-29T11:31:44.754Z,14725
2022-07-29T11:34:47.233Z,19020
2022-07-29T11:37:34.935Z,25140
2022-07-29T11:40:07.959Z,29310
2022-07-29T11:42:28.117Z,17230
2022-07-29T11:44:30.217Z,15953
2022-07-29T11:47:24.185Z,12917
2022-07-29T11:50:03.693Z,11407
2022-07-29T11:52:28.470Z,10511
2022-07-29T11:54:38.667Z,10035
2022-07-29T11:57:39.049Z,9566
2022-07-29T12:00:25.031Z,9159
2022-07-29T12:02:56.297Z,9062
2022-07-29T12:05:12.875Z,9679
2022-07-29T12:07:15.498Z,10772
2022-07-29T12:10:07.392Z,12144
2022-07-29T12:12:45.121Z,13322
2022-07-29T12:15:08.294Z,14740
2022-07-29T12:17:16.807Z,15544
2022-07-29T12:20:15.594Z,14991
2022-07-29T12:22:59.970Z,15170
2022-07-29T12:25:33.387Z,14100
2022-07-29T12:27:44.358Z,13173
2022-07-29T12:30:49.555Z,12574
2022-07-29T12:33:40.101Z,11366
2022-07-29T12:36:17.853Z,11299
2022-07-29T12:38:37.160Z,10306
2022-07-29T12:40:43.848Z,9799
2022-07-29T12:43:40.795Z,9856
2022-07-29T12:46:23.119Z,9856
2022-07-29T12:48:51.005Z,10127
2022-07-29T12:51:03.803Z,10746
2022-07-29T12:54:07.023Z,11985
2022-07-29T12:56:55.933Z,14202
2022-07-29T12:59:29.898Z,15918
2022-07-29T13:01:49.547Z,16860
2022-07-29T13:03:57.274Z,17160
2022-07-29T13:06:49.715Z,14617
2022-07-29T13:09:29.304Z,12687
2022-07-29T13:11:54.957Z,9914
2022-07-29T13:14:07.092Z,8509
2022-07-29T13:17:07.717Z,7050
2022-07-29T13:19:54.496Z,5900
2022-07-29T13:22:26.858Z,5826
2022-07-29T13:24:44.477Z,5703
2022-07-29T13:26:47.369Z,5424
2022-07-29T13:29:40.830Z,4869
2022-07-29T13:32:19.531Z,4395
2022-07-29T13:34:43.531Z,4456
2022-07-29T13:36:52.769Z,4318
2022-07-29T13:39:53.064Z,4194
2022-07-29T13:42:37.520Z,5076
2022-07-29T13:45:07.942Z,6067
2022-07-29T13:47:31.952Z,6842
2022-07-29T13:50:30.435Z,6935
2022-07-29T13:53:26.692Z,7242
2022-07-29T13:55:59.495Z,7416
2022-07-29T13:58:22.019Z,7331
2022-07-29T14:00:29.844Z,6740
2022-07-29T14:03:28.307Z,6405
2022-07-29T14:06:11.958Z,6041
2022-07-29T14:08:40.903Z,5154
2022-07-29T14:10:54.990Z,4577
2022-07-29T14:13:59.710Z,3495
2022-07-29T14:16:52.259Z,2932
2022-07-29T14:19:24.851Z,2565
2022-07-29T14:21:45.747Z,2234
2022-07-29T14:23:51.636Z,2023
2022-07-29T14:26:48.107Z,2005
2022-07-29T14:29:36.820Z,2145
2022-07-29T14:31:57.742Z,2295
2022-07-29T14:34:09.824Z,2449
2022-07-29T14:37:15.756Z,2405
2022-07-29T14:40:01.261Z,2653
2022-07-29T14:42:34.908Z,2831
2022-07-29T14:44:53.804Z,2845
2022-07-29T14:46:58.186Z,2927
2022-07-29T14:49:53.026Z,3582
2022-07-29T14:52:33.081Z,4409
2022-07-29T14:54:58.736Z,5475
2022-07-29T14:57:09.569Z,5703
2022-07-29T15:00:10.886Z,6763
2022-07-29T15:03:01.702Z,5803
2022-07-29T15:05:29.665Z,5760
2022-07-29T15:07:46.838Z,6059
2022-07-29T15:09:49.720Z,6799
2022-07-29T15:12:42.431Z,7723
2022-07-29T15:15:20.762Z,8268
2022-07-29T15:17:44.352Z,8824
2022-07-29T15:19:53.349Z,8801
2022-07-29T15:22:52.937Z,8168
2022-07-29T15:25:37.771Z,6881
2022-07-29T15:28:08.033Z,5634
2022-07-29T15:30:29.618Z,4728
2022-07-29T15:33:29.497Z,4444
2022-07-29T15:36:42.386Z,4947
2022-07-29T15:38:57.652Z,5616
2022-07-29T15:41:19.545Z,6151
2022-07-29T15:43:26.639Z,6709
2022-07-29T15:46:24.673Z,7339
2022-07-29T15:49:07.860Z,7964
2022-07-29T15:51:36.083Z,7795
2022-07-29T15:53:53.444Z,7104
2022-07-29T15:56:54.257Z,5324
2022-07-29T15:59:43.726Z,3795
2022-07-29T16:02:18.737Z,2973
2022-07-29T16:04:38.908Z,2758
2022-07-29T16:06:44.245Z,2804
2022-07-29T16:09:40.444Z,3051
2022-07-29T16:12:21.823Z,3375
2022-07-29T16:14:48.463Z,3522
2022-07-29T16:17:00.591Z,3360
2022-07-29T16:20:02.779Z,3138
2022-07-29T16:22:50.575Z,3034
2022-07-29T16:25:33.720Z,2967
2022-07-29T16:27:41.965Z,2762
2022-07-29T16:29:45.507Z,2419
2022-07-29T16:32:39.687Z,2016
2022-07-29T16:35:19.328Z,1670
2022-07-29T16:37:44.222Z,1502
2022-07-29T16:39:54.141Z,1607
2022-07-29T16:42:54.813Z,2035
2022-07-29T16:45:45.730Z,2382
2022-07-29T16:48:12.076Z,2643
2022-07-29T16:50:28.530Z,2769
2022-07-29T16:53:35.815Z,2922
2022-07-29T16:56:28.254Z,3164
2022-07-29T16:59:05.914Z,3207
2022-07-29T17:01:29.002Z,3293
2022-07-29T17:03:37.195Z,3522
2022-07-29T17:06:36.037Z,3703
2022-07-29T17:09:20.310Z,3390
2022-07-29T17:11:52.153Z,2641
2022-07-29T17:14:04.413Z,2132
2022-07-29T17:17:13.659Z,1610.8
2022-07-29T17:20:00.373Z,1436.1
2022-07-29T17:22:36.190Z,1444.4
2022-07-29T17:24:57.245Z,1462.4
2022-07-29T17:27:03.703Z,1474.5
2022-07-29T17:30:00.800Z,1477.7
2022-07-29T17:32:43.092Z,1474.5
2022-07-29T17:35:10.859Z,1462.4
2022-07-29T17:37:23.815Z,1408
2022-07-29T17:40:27.392Z,1184.9
2022-07-29T17:43:16.534Z,1015
2022-07-29T17:45:51.002Z,918
2022-07-29T17:48:10.119Z,804.4
2022-07-29T17:50:14.709Z,667.8
2022-07-29T17:53:15.520Z,493.6
2022-07-29T17:55:51.076Z,352.8
2022-07-29T17:58:16.641Z,322.8
2022-07-29T18:00:27.888Z,340.8
2022-07-29T18:03:29.728Z,357.4
2022-07-29T18:06:16.688Z,344.3
2022-07-29T18:08:49.136Z,292.8
2022-07-29T18:11:06.754Z,279.2
2022-07-29T18:13:09.609Z,287.2
2022-07-29T18:16:03.463Z,264.9
2022-07-29T18:18:42.274Z,235.6
2022-07-29T18:21:06.282Z,201.6
2022-07-29T18:23:15.476Z,176.1
2022-07-29T18:26:15.657Z,151.28
2022-07-29T18:29:00.954Z,141.44
2022-07-29T18:31:31.455Z,132.32
2022-07-29T18:33:47.351Z,127.52
2022-07-29T18:36:53.883Z,121.6
2022-07-29T18:39:45.601Z,118.64
2022-07-29T18:42:22.800Z,110.16
2022-07-29T18:44:48.947Z,98.52
2022-07-29T18:46:52.653Z,87
2022-07-29T18:49:51.082Z,69.82
2022-07-29T18:52:34.508Z,60.94
2022-07-29T18:55:03.273Z,56.3
2022-07-29T18:57:53.483Z,47.48
2022-07-29T19:00:22.008Z,35.56
2022-07-29T19:03:12.111Z,27.68
2022-07-29T19:05:47.115Z,21.24
2022-07-29T19:08:07.657Z,16.15
2022-07-29T19:10:13.379Z,12.85
2022-07-29T19:13:09.756Z,9.61
2022-07-29T19:15:51.621Z,7.5
2022-07-29T19:18:18.539Z,6.07
2022-07-29T19:20:30.637Z,4.86
2022-07-29T19:24:00.800Z,3.35
2022-07-29T19:26:21.582Z,2.53
2022-07-29T19:28:54.977Z,1.95
2022-07-29T19:31:13.494Z,1.53
2022-07-29T19:33:17.295Z,1.24
2022-07-29T19:36:11.883Z,0.87
2022-07-29T19:38:51.606Z,0.64
2022-07-29T19:41:16.695Z,0.51
2022-07-29T19:43:50.042Z,0.4
2022-07-29T19:46:28.076Z,0.3
2022-07-29T19:49:14.463Z,0.25
2022-07-29T19:51:45.895Z,0.22
2022-07-29T19:54:02.619Z,0.21
2022-07-29T19:57:10.062Z,0.16
2022-07-29T20:00:02.907Z,0.15
2022-07-29T20:02:41.006Z,0.14
2022-07-29T20:05:04.105Z,0.14
2022-07-29T20:07:12.688Z,0.14
2022-07-29T20:10:12.091Z,0.14
2022-07-29T20:12:56.578Z,0.14
2022-07-29T20:15:26.435Z,0.13
2022-07-29T20:17:41.495Z,0.75
2022-07-29T20:20:47.208Z,0.13
2022-07-29T20:23:38.386Z,0.13
2022-07-29T20:26:14.734Z,0.12
2022-07-29T20:28:36.160Z,0.13
2022-07-29T20:30:42.739Z,0.13
2022-07-29T20:33:40.265Z,0.13
2022-07-29T20:36:22.960Z,0.13
2022-07-29T20:38:50.825Z,0.13
2022-07-29T20:41:03.994Z,0.12
2022-07-29T20:44:07.914Z,0.12
2022-07-29T20:46:57.158Z,0.11
2022-07-29T20:49:31.440Z,0.12
2022-07-29T20:51:51.027Z,0.12
2022-07-29T20:53:55.762Z,0.12
2022-07-29T20:56:51.448Z,0.12
2022-07-29T20:59:32.396Z,0.12
2022-07-29T21:01:58.404Z,0.12
2022-07-29T21:04:09.488Z,0.12
2022-07-29T21:07:11.608Z,0.12
2022-07-29T21:09:58.972Z,0.12
2022-07-29T21:12:31.423Z,0.12
2022-07-29T21:14:49.034Z,0.12
2022-07-29T21:16:51.936Z,0.12
2022-07-29T21:19:45.547Z,0.12
2022-07-29T21:22:24.471Z,0.12
2022-07-29T21:24:48.544Z,0.12
2022-07-29T21:27:18.513Z,0.12
2022-07-29T21:29:57.950Z,0.13
2022-07-29T21:32:43.394Z,0.14
2022-07-29T21:34:53.814Z,0.13
2022-07-29T21:37:54.989Z,0.13
2022-07-29T21:40:41.432Z,0.13
2022-07-29T21:43:13.175Z,0.13
2022-07-29T21:45:30.160Z,0.13
2022-07-29T21:48:41.227Z,0.13
2022-07-29T21:51:30.861Z,0.13
2022-07-29T21:54:08.980Z,0.13
2022-07-29T21:56:32.212Z,0.13
2022-07-29T21:58:40.541Z,0.04
2022-07-29T22:01:39.867Z,0.04
2022-07-29T22:04:24.336Z,0.04
2022-07-29T22:06:53.876Z,0.04
2022-07-29T22:09:08.784Z,0.03
2022-07-29T22:12:14.372Z,0.04
2022-07-29T22:15:05.125Z,0.04
2022-07-29T22:17:41.253Z,0.04
2022-07-29T22:20:02.560Z,0.04
2022-07-29T22:22:09.053Z,0.04
2022-07-29T22:25:06.424Z,0.04
2022-07-29T22:27:48.896Z,0.04
2022-07-29T22:30:16.611Z,0.04
2022-07-29T22:32:29.464Z,0.04
2022-07-29T22:35:33.305Z,0.04
2022-07-29T22:38:22.256Z,0.04
2022-07-29T22:40:58.783Z,0.04
2022-07-29T22:43:15.891Z,0.04
2022-07-29T22:45:20.642Z,0.03
2022-07-29T22:48:15.958Z,0.03
2022-07-29T22:50:56.740Z,0.04
2022-07-29T22:53:22.737Z,0.04
2022-07-29T22:55:33.820Z,0.04
2022-07-29T22:58:35.567Z,0.03
2022-07-29T23:01:35.764Z,0.05
2022-07-29T23:03:55.085Z,0.03
2022-07-29T23:06:12.548Z,0.03
2022-07-29T23:08:15.463Z,0.03
2022-07-29T23:11:09.019Z,0.03
2022-07-29T23:13:47.768Z,0.03
2022-07-29T23:16:11.886Z,0.03
2022-07-29T23:18:21.256Z,0.03
2022-07-29T23:21:21.284Z,0.03
2022-07-29T23:24:06.752Z,0.03
2022-07-29T23:26:37.459Z,0.03
2022-07-29T23:28:53.369Z,0.03
2022-07-29T23:31:59.948Z,0.03
2022-07-29T23:34:51.823Z,0.03
2022-07-29T23:37:28.851Z,0.03
2022-07-29T23:39:51.048Z,0.03
2022-07-29T23:41:58.673Z,0.03
2022-07-29T23:44:56.893Z,0.03
2022-07-29T23:47:40.301Z,0.03
2022-07-29T23:50:09.196Z,0.03
2022-07-29T23:52:23.206Z,0.03
2022-07-29T23:55:35.960Z,0.03
2022-07-29T23:58:18.029Z,0.03
